17:15
Airports
History
Links
Donate
Help keep this website running!
PayPal
Bitcoin
Information on this page is community maintained and may be outdated or inaccurate and is intended for reference only or PC simulator navigating!
Always use approved charts for navigating.
ETIH
HOHENFELS AAF
HOHENFELS AAF (ETIH)
Hohenfels, Bayern, Germany (92366)
(C)
Lat/Lng:49° 13' 5" N / 11° 50' 10" E
49.218056 / 11.836112
Elevation:1455'ft 443mMSL
ID / ICAO:ETIH
Runways:1
Longest:(09-27) 643.7m 2,112ft Asphalt
Controlled:Yes
Distance To
Airport ID:
Airport Radio Frequencies
Tower: 120.65, 122.1
Nearby VORs <50NM
Nearby NDBs
METARUpdated 04-24-17 16:59 GMT
Altimeter: 29.88
Visibility: 6.2 statute miles
Wind: 0 knots (000°)
Temp: 14°c 57°f
Humidity: %

METAR: ETIH 241659Z AUTO 00000KT 9999 CLR 14/00 A2988 RMK AO2 SLP131

(Powered by phpweather)
Runway 09 / 27
Dimensions:643.7 x 22m 2112' x 72'ft
Surface:Asphalt
Edge Lights:High intensity
Runway 09 [A]Runway 27 [B]
Heading:090°TH 270°TH
Lat:
Lng:
49° 13' 5"N
11° 49' 54"E
49° 13' 5"N
11° 50' 26"E
TDZ:Yes, lighted
Google Map
Nearby Airports
(U) Schmidgaden 18.9 NM
EDPQ NE 38°
(U) Nittenau Bruck 20.8 NM
EDNM E 89°
(U) VILSECK AAF 28.9 NM
ETOI N 353°
(C) Roth 33.2 NM
ETHR (WX) W 269°
(C) GRAFENWOHR AAF 33.5 NM
ETIC (WX) N
(U) Weiden 34.2 NM
EDQW NNE 21°
(C) Ingolstadt Manching 37.4 NM
ETSI (WX) SSW 201°
VFR Chart
Flight Planning at SkyVector.com